Terminal Aerodrome Forecast
Issued by NWS Wichita, KS

Home | Current Version | Previous Version | Graphics & Text | Print | Product List | Glossary On
Versions: 1 2 3 4 5 6 7 8 9 10 11 12 13 14 15 16 17
737
FTUS43 KICT 202328
TAFICT
TAF
KICT 202328Z 2100/2124 12016G24KT P6SM SCT150 BKN220
     FM210200 12010KT P6SM VCSH OVC140
     FM210600 10008KT P6SM SHRA OVC090
     FM210900 10009KT P6SM SHRA OVC030
     FM211100 11011KT 6SM -SHRA OVC010
     FM211400 10011KT 5SM -SHRA OVC008=

USA.gov is the U.S. government's official web portal to all federal, state and local government web resources and services.